FACT

Cape Town International Airport

Airport
ICAO code
FACT
IATA Code
CPT
Summary
ICAO Region
AFI
ICAO Territory
Location

, Western Cape

Serving
Cape Town
Elevation
151 ft
Coordinates
33° 57' 53" S , 18° 36' 6" E
Metar
FACT 221400Z 18022KT CAVOK 23/10 Q1013 NOSIG

Runways

Designator Length Width Surface Rops
16/34 1701 46 ASP Yes/Yes
1/19 3201 61 ASP Yes/Yes

Airport map

Aerial View

SKYbrary Partners:

Safety knowledge contributed by: